sensor_id;sensor_type;location;lat;lon;timestamp;pressure;altitude;pressure_sealevel;temperature;humidity
24302;BME280;12421;49.732;20.078;2023-03-04T00:03:01;96825.38;;;-1.71;76.07
24302;BME280;12421;49.732;20.078;2023-03-04T00:13:04;96822.81;;;-1.86;76.37
24302;BME280;12421;49.732;20.078;2023-03-04T00:23:07;96815.69;;;-1.93;76.60
24302;BME280;12421;49.732;20.078;2023-03-04T00:33:10;96812.43;;;-1.97;76.98
24302;BME280;12421;49.732;20.078;2023-03-04T00:43:13;96805.27;;;-2.05;77.21
24302;BME280;12421;49.732;20.078;2023-03-04T00:53:16;96801.75;;;-2.17;77.13
24302;BME280;12421;49.732;20.078;2023-03-04T01:03:20;96779.42;;;-2.16;77.91
24302;BME280;12421;49.732;20.078;2023-03-04T01:13:24;96752.95;;;-2.06;77.99
24302;BME280;12421;49.732;20.078;2023-03-04T01:23:27;96744.66;;;-2.12;78.09
24302;BME280;12421;49.732;20.078;2023-03-04T01:33:31;96728.15;;;-2.17;78.32
24302;BME280;12421;49.732;20.078;2023-03-04T01:43:35;96708.31;;;-2.14;78.71
24302;BME280;12421;49.732;20.078;2023-03-04T01:53:39;96689.11;;;-2.02;78.63
24302;BME280;12421;49.732;20.078;2023-03-04T02:03:43;96686.38;;;-2.02;78.46
24302;BME280;12421;49.732;20.078;2023-03-04T02:13:47;96685.28;;;-2.04;78.24
24302;BME280;12421;49.732;20.078;2023-03-04T02:34:15;96657.92;;;-1.94;78.31
24302;BME280;12421;49.732;20.078;2023-03-04T02:44:23;96642.06;;;-2.00;78.20
24302;BME280;12421;49.732;20.078;2023-03-04T02:54:28;96642.71;;;-1.96;78.47
24302;BME280;12421;49.732;20.078;2023-03-04T03:04:33;96637.18;;;-1.97;78.32
24302;BME280;12421;49.732;20.078;2023-03-04T03:14:41;96640.58;;;-2.09;78.04
24302;BME280;12421;49.732;20.078;2023-03-04T03:24:46;96626.67;;;-2.19;78.12
24302;BME280;12421;49.732;20.078;2023-03-04T03:34:49;96612.13;;;-2.32;77.93
24302;BME280;12421;49.732;20.078;2023-03-04T03:44:53;96597.94;;;-2.45;77.79
24302;BME280;12421;49.732;20.078;2023-03-04T03:54:58;96593.36;;;-2.58;77.90
24302;BME280;12421;49.732;20.078;2023-03-04T04:05:04;96585.75;;;-2.85;77.44
24302;BME280;12421;49.732;20.078;2023-03-04T04:15:10;96583.56;;;-3.18;77.63
24302;BME280;12421;49.732;20.078;2023-03-04T04:25:13;96584.22;;;-3.33;77.86
24302;BME280;12421;49.732;20.078;2023-03-04T04:35:16;96583.46;;;-3.44;78.03
24302;BME280;12421;49.732;20.078;2023-03-04T04:45:20;96581.40;;;-3.62;78.04
24302;BME280;12421;49.732;20.078;2023-03-04T04:55:23;96569.02;;;-3.85;77.95
24302;BME280;12421;49.732;20.078;2023-03-04T05:05:26;96568.13;;;-4.00;77.66
24302;BME280;12421;49.732;20.078;2023-03-04T05:15:29;96558.34;;;-4.09;77.76
24302;BME280;12421;49.732;20.078;2023-03-04T05:25:32;96557.06;;;-4.41;77.62
24302;BME280;12421;49.732;20.078;2023-03-04T05:35:37;96553.94;;;-4.63;77.53
24302;BME280;12421;49.732;20.078;2023-03-04T05:45:40;96549.80;;;-4.76;78.11
24302;BME280;12421;49.732;20.078;2023-03-04T05:55:47;96555.25;;;-4.81;78.05
24302;BME280;12421;49.732;20.078;2023-03-04T06:05:50;96550.13;;;-4.73;78.87
24302;BME280;12421;49.732;20.078;2023-03-04T06:15:55;96545.61;;;-4.41;79.14
24302;BME280;12421;49.732;20.078;2023-03-04T06:25:59;96541.95;;;-4.03;79.25
24302;BME280;12421;49.732;20.078;2023-03-04T06:36:03;96539.52;;;-3.72;79.60
24302;BME280;12421;49.732;20.078;2023-03-04T06:46:07;96530.82;;;-2.79;80.26
24302;BME280;12421;49.732;20.078;2023-03-04T06:56:12;96517.23;;;-1.71;78.75
24302;BME280;12421;49.732;20.078;2023-03-04T07:06:20;96502.27;;;-0.77;77.54
24302;BME280;12421;49.732;20.078;2023-03-04T07:16:25;96496.66;;;-0.03;75.85
24302;BME280;12421;49.732;20.078;2023-03-04T07:26:29;96493.95;;;0.73;73.86
24302;BME280;12421;49.732;20.078;2023-03-04T07:36:34;96502.48;;;1.51;72.23
24302;BME280;12421;49.732;20.078;2023-03-04T07:46:39;96487.37;;;1.90;70.49
24302;BME280;12421;49.732;20.078;2023-03-04T07:56:42;96470.75;;;2.24;69.99
24302;BME280;12421;49.732;20.078;2023-03-04T08:06:45;96459.39;;;2.56;69.68
24302;BME280;12421;49.732;20.078;2023-03-04T08:16:50;96460.30;;;2.74;68.97
24302;BME280;12421;49.732;20.078;2023-03-04T08:26:54;96460.75;;;2.83;67.55
24302;BME280;12421;49.732;20.078;2023-03-04T08:36:57;96464.48;;;3.08;67.33
24302;BME280;12421;49.732;20.078;2023-03-04T08:47:00;96470.77;;;3.47;66.31
24302;BME280;12421;49.732;20.078;2023-03-04T08:57:03;96466.41;;;3.87;65.86
24302;BME280;12421;49.732;20.078;2023-03-04T09:07:06;96471.73;;;4.32;66.04
24302;BME280;12421;49.732;20.078;2023-03-04T09:17:12;96476.91;;;4.54;64.80
24302;BME280;12421;49.732;20.078;2023-03-04T09:27:15;96498.40;;;4.44;64.84
24302;BME280;12421;49.732;20.078;2023-03-04T09:37:18;96521.34;;;4.19;64.91
24302;BME280;12421;49.732;20.078;2023-03-04T09:47:23;96530.88;;;3.40;64.93
24302;BME280;12421;49.732;20.078;2023-03-04T09:57:54;96537.48;;;2.66;65.79
24302;BME280;12421;49.732;20.078;2023-03-04T10:08:35;96546.88;;;2.69;66.87
24302;BME280;12421;49.732;20.078;2023-03-04T10:18:46;96559.60;;;2.26;66.84
24302;BME280;12421;49.732;20.078;2023-03-04T10:28:50;96547.21;;;2.09;68.05
24302;BME280;12421;49.732;20.078;2023-03-04T10:39:04;96541.89;;;2.46;67.35
24302;BME280;12421;49.732;20.078;2023-03-04T10:49:14;96534.48;;;2.62;66.66
24302;BME280;12421;49.732;20.078;2023-03-04T11:09:48;96537.21;;;2.34;64.95
24302;BME280;12421;49.732;20.078;2023-03-04T11:19:56;96538.94;;;2.46;66.22
24302;BME280;12421;49.732;20.078;2023-03-04T11:31:05;96543.73;;;3.08;65.68
24302;BME280;12421;49.732;20.078;2023-03-04T11:40:50;96536.30;;;3.58;64.83
24302;BME280;12421;49.732;20.078;2023-03-04T12:01:31;96519.03;;;3.50;63.87
24302;BME280;12421;49.732;20.078;2023-03-04T12:12:10;96506.08;;;3.57;64.85
24302;BME280;12421;49.732;20.078;2023-03-04T12:22:36;96499.77;;;3.68;64.63
24302;BME280;12421;49.732;20.078;2023-03-04T12:32:51;96485.23;;;3.54;64.65
24302;BME280;12421;49.732;20.078;2023-03-04T12:53:52;96469.48;;;3.22;65.41
24302;BME280;12421;49.732;20.078;2023-03-04T13:04:18;96465.66;;;3.21;65.88
24302;BME280;12421;49.732;20.078;2023-03-04T13:14:27;96463.86;;;3.34;65.89
24302;BME280;12421;49.732;20.078;2023-03-04T13:24:44;96452.17;;;3.44;66.00
24302;BME280;12421;49.732;20.078;2023-03-04T13:34:51;96444.70;;;3.42;66.29
24302;BME280;12421;49.732;20.078;2023-03-04T13:44:58;96437.14;;;3.33;66.20
24302;BME280;12421;49.732;20.078;2023-03-04T14:05:37;96434.95;;;3.21;66.52
24302;BME280;12421;49.732;20.078;2023-03-04T14:15:40;96422.83;;;3.22;66.72
24302;BME280;12421;49.732;20.078;2023-03-04T14:25:43;96420.21;;;3.21;66.51
24302;BME280;12421;49.732;20.078;2023-03-04T14:35:48;96407.19;;;3.19;67.05
24302;BME280;12421;49.732;20.078;2023-03-04T14:45:55;96409.58;;;3.14;67.14
24302;BME280;12421;49.732;20.078;2023-03-04T14:56:07;96408.00;;;3.12;67.66
24302;BME280;12421;49.732;20.078;2023-03-04T15:06:33;96406.23;;;3.08;67.77
24302;BME280;12421;49.732;20.078;2023-03-04T15:16:54;96404.02;;;2.95;67.96
24302;BME280;12421;49.732;20.078;2023-03-04T15:26:59;96395.58;;;2.83;68.15
24302;BME280;12421;49.732;20.078;2023-03-04T15:37:06;96396.52;;;2.73;68.32
24302;BME280;12421;49.732;20.078;2023-03-04T15:47:12;96400.96;;;2.68;68.49
24302;BME280;12421;49.732;20.078;2023-03-04T15:57:26;96411.17;;;2.67;68.30
24302;BME280;12421;49.732;20.078;2023-03-04T16:07:30;96406.34;;;2.68;68.06
24302;BME280;12421;49.732;20.078;2023-03-04T16:17:33;96404.05;;;2.64;68.13
24302;BME280;12421;49.732;20.078;2023-03-04T16:27:37;96405.01;;;2.58;68.30
24302;BME280;12421;49.732;20.078;2023-03-04T16:37:42;96408.48;;;2.58;68.08
24302;BME280;12421;49.732;20.078;2023-03-04T16:47:46;96409.28;;;2.53;68.25
24302;BME280;12421;49.732;20.078;2023-03-04T16:57:50;96412.55;;;2.51;68.19
24302;BME280;12421;49.732;20.078;2023-03-04T17:07:54;96418.63;;;2.53;67.73
24302;BME280;12421;49.732;20.078;2023-03-04T17:17:57;96417.09;;;2.53;67.52
24302;BME280;12421;49.732;20.078;2023-03-04T17:28:00;96420.90;;;2.54;67.74
24302;BME280;12421;49.732;20.078;2023-03-04T17:38:03;96425.90;;;2.52;67.76
24302;BME280;12421;49.732;20.078;2023-03-04T17:48:08;96429.78;;;2.57;67.73
24302;BME280;12421;49.732;20.078;2023-03-04T17:58:17;96426.59;;;2.52;67.72
24302;BME280;12421;49.732;20.078;2023-03-04T18:08:20;96424.82;;;2.49;67.94
24302;BME280;12421;49.732;20.078;2023-03-04T18:18:25;96424.88;;;2.52;68.19
24302;BME280;12421;49.732;20.078;2023-03-04T18:28:29;96421.05;;;2.52;68.10
24302;BME280;12421;49.732;20.078;2023-03-04T18:38:33;96407.16;;;2.49;68.15
24302;BME280;12421;49.732;20.078;2023-03-04T18:48:43;96400.52;;;2.44;67.73
24302;BME280;12421;49.732;20.078;2023-03-04T18:58:48;96396.24;;;2.48;68.32
24302;BME280;12421;49.732;20.078;2023-03-04T19:08:52;96400.42;;;2.50;68.59
24302;BME280;12421;49.732;20.078;2023-03-04T19:18:57;96410.64;;;2.50;68.81
24302;BME280;12421;49.732;20.078;2023-03-04T19:29:00;96412.34;;;2.49;69.84
24302;BME280;12421;49.732;20.078;2023-03-04T19:39:04;96415.67;;;2.51;70.79
24302;BME280;12421;49.732;20.078;2023-03-04T19:49:08;96408.83;;;2.59;70.53
24302;BME280;12421;49.732;20.078;2023-03-04T19:59:12;96409.86;;;2.57;70.19
24302;BME280;12421;49.732;20.078;2023-03-04T20:09:17;96406.89;;;2.55;70.40
24302;BME280;12421;49.732;20.078;2023-03-04T20:19:22;96409.24;;;2.50;70.97
24302;BME280;12421;49.732;20.078;2023-03-04T20:29:26;96405.84;;;2.54;71.18
24302;BME280;12421;49.732;20.078;2023-03-04T20:39:30;96402.48;;;2.64;71.11
24302;BME280;12421;49.732;20.078;2023-03-04T20:49:58;96396.10;;;2.67;70.90
24302;BME280;12421;49.732;20.078;2023-03-04T21:00:03;96390.70;;;2.64;70.90
24302;BME280;12421;49.732;20.078;2023-03-04T21:10:10;96387.00;;;2.58;71.06
24302;BME280;12421;49.732;20.078;2023-03-04T21:20:13;96378.91;;;2.64;71.09
24302;BME280;12421;49.732;20.078;2023-03-04T21:30:17;96370.85;;;2.72;71.21
24302;BME280;12421;49.732;20.078;2023-03-04T21:40:20;96372.23;;;2.72;71.50
24302;BME280;12421;49.732;20.078;2023-03-04T21:50:23;96377.06;;;2.69;71.65
24302;BME280;12421;49.732;20.078;2023-03-04T22:00:26;96365.78;;;2.67;71.95
24302;BME280;12421;49.732;20.078;2023-03-04T22:10:29;96361.80;;;2.68;72.05
24302;BME280;12421;49.732;20.078;2023-03-04T22:20:35;96361.23;;;2.63;72.07
24302;BME280;12421;49.732;20.078;2023-03-04T22:30:38;96356.35;;;2.61;72.40
24302;BME280;12421;49.732;20.078;2023-03-04T22:40:41;96354.58;;;2.57;72.61
24302;BME280;12421;49.732;20.078;2023-03-04T22:50:45;96352.52;;;2.59;73.40
24302;BME280;12421;49.732;20.078;2023-03-04T23:00:48;96352.20;;;2.60;73.86
24302;BME280;12421;49.732;20.078;2023-03-04T23:10:51;96377.36;;;2.48;73.80
24302;BME280;12421;49.732;20.078;2023-03-04T23:20:57;96385.83;;;2.32;72.26
24302;BME280;12421;49.732;20.078;2023-03-04T23:31:00;96387.05;;;2.05;70.60
24302;BME280;12421;49.732;20.078;2023-03-04T23:41:10;96388.59;;;1.91;70.26
24302;BME280;12421;49.732;20.078;2023-03-04T23:51:15;96396.28;;;1.85;69.66
